Terminal Aerodrome Forecast
Issued by NWS North Platte, NE

Home | Current Version | Previous Version | Text Only | Print | Product List | Glossary Off
Versions: 1 2 3 4 5 6 7 8 9 10 11 12 13 14 15 16 17 18 19

112
FTUS43 KLBF 162205 AAA
TAFVTN
TAF AMD
KVTN 162205Z 1622/1718 34011KT P6SM FEW025 SCT250
     FM170200 27005KT P6SM FEW250
     FM171500 VRB05KT P6SM FEW250=

USA.gov is the U.S. government's official web portal to all federal, state and local government web resources and services.